sensor_id;sensor_type;location;lat;lon;timestamp;P1;durP1;ratioP1;P2;durP2;ratioP2
59054;SDS011;44845;51.444;7.460;2023-05-03T00:00:43;5.47;;;2.30;;
59054;SDS011;44845;51.444;7.460;2023-05-03T00:03:08;4.18;;;2.00;;
59054;SDS011;44845;51.444;7.460;2023-05-03T00:05:34;7.65;;;2.60;;
59054;SDS011;44845;51.444;7.460;2023-05-03T00:07:59;4.32;;;2.30;;
59054;SDS011;44845;51.444;7.460;2023-05-03T00:10:25;3.33;;;2.33;;
59054;SDS011;44845;51.444;7.460;2023-05-03T00:12:50;5.97;;;2.53;;
59054;SDS011;44845;51.444;7.460;2023-05-03T00:15:16;8.43;;;3.28;;
59054;SDS011;44845;51.444;7.460;2023-05-03T00:17:41;8.07;;;3.22;;
59054;SDS011;44845;51.444;7.460;2023-05-03T00:20:07;5.63;;;2.78;;
59054;SDS011;44845;51.444;7.460;2023-05-03T00:22:32;4.88;;;2.75;;
59054;SDS011;44845;51.444;7.460;2023-05-03T00:24:58;5.07;;;2.85;;
59054;SDS011;44845;51.444;7.460;2023-05-03T00:27:24;7.65;;;2.65;;
59054;SDS011;44845;51.444;7.460;2023-05-03T00:29:50;5.03;;;2.97;;
59054;SDS011;44845;51.444;7.460;2023-05-03T00:32:19;5.03;;;2.83;;
59054;SDS011;44845;51.444;7.460;2023-05-03T00:34:46;4.80;;;3.13;;
59054;SDS011;44845;51.444;7.460;2023-05-03T00:37:16;6.88;;;2.97;;
59054;SDS011;44845;51.444;7.460;2023-05-03T00:39:41;4.43;;;2.30;;
59054;SDS011;44845;51.444;7.460;2023-05-03T00:42:07;4.25;;;2.55;;
59054;SDS011;44845;51.444;7.460;2023-05-03T00:44:32;5.97;;;2.40;;
59054;SDS011;44845;51.444;7.460;2023-05-03T00:46:58;4.45;;;2.58;;
59054;SDS011;44845;51.444;7.460;2023-05-03T00:49:24;5.95;;;3.67;;
59054;SDS011;44845;51.444;7.460;2023-05-03T00:51:53;4.65;;;3.20;;
59054;SDS011;44845;51.444;7.460;2023-05-03T00:54:18;7.10;;;3.05;;
59054;SDS011;44845;51.444;7.460;2023-05-03T00:56:44;5.07;;;3.08;;
59054;SDS011;44845;51.444;7.460;2023-05-03T00:59:11;5.13;;;2.67;;
59054;SDS011;44845;51.444;7.460;2023-05-03T01:01:36;5.05;;;3.03;;
59054;SDS011;44845;51.444;7.460;2023-05-03T01:04:02;4.00;;;2.90;;
59054;SDS011;44845;51.444;7.460;2023-05-03T01:06:39;6.10;;;3.15;;
59054;SDS011;44845;51.444;7.460;2023-05-03T01:12:14;8.07;;;3.03;;
59054;SDS011;44845;51.444;7.460;2023-05-03T01:18:20;7.38;;;3.05;;
59054;SDS011;44845;51.444;7.460;2023-05-03T01:20:50;6.63;;;3.45;;
59054;SDS011;44845;51.444;7.460;2023-05-03T01:23:27;4.88;;;2.78;;
59054;SDS011;44845;51.444;7.460;2023-05-03T01:25:54;6.55;;;3.15;;
59054;SDS011;44845;51.444;7.460;2023-05-03T01:28:19;7.03;;;3.58;;
59054;SDS011;44845;51.444;7.460;2023-05-03T01:30:45;8.43;;;3.45;;
59054;SDS011;44845;51.444;7.460;2023-05-03T01:33:24;7.72;;;3.67;;
59054;SDS011;44845;51.444;7.460;2023-05-03T01:38:40;5.47;;;3.35;;
59054;SDS011;44845;51.444;7.460;2023-05-03T01:41:08;6.13;;;3.50;;
59054;SDS011;44845;51.444;7.460;2023-05-03T01:43:36;5.82;;;3.40;;
59054;SDS011;44845;51.444;7.460;2023-05-03T01:46:03;8.93;;;3.63;;
59054;SDS011;44845;51.444;7.460;2023-05-03T01:48:28;6.72;;;4.05;;
59054;SDS011;44845;51.444;7.460;2023-05-03T01:50:53;7.30;;;3.72;;
59054;SDS011;44845;51.444;7.460;2023-05-03T01:53:19;8.32;;;3.72;;
59054;SDS011;44845;51.444;7.460;2023-05-03T01:55:44;6.65;;;3.78;;
59054;SDS011;44845;51.444;7.460;2023-05-03T01:58:10;8.15;;;4.30;;
59054;SDS011;44845;51.444;7.460;2023-05-03T02:00:36;7.88;;;4.28;;
59054;SDS011;44845;51.444;7.460;2023-05-03T02:03:02;9.50;;;4.35;;
59054;SDS011;44845;51.444;7.460;2023-05-03T02:05:27;8.80;;;4.00;;
59054;SDS011;44845;51.444;7.460;2023-05-03T02:07:53;7.32;;;4.03;;
59054;SDS011;44845;51.444;7.460;2023-05-03T02:10:18;7.93;;;3.90;;
59054;SDS011;44845;51.444;7.460;2023-05-03T02:12:43;8.55;;;4.30;;
59054;SDS011;44845;51.444;7.460;2023-05-03T02:15:09;6.43;;;3.65;;
59054;SDS011;44845;51.444;7.460;2023-05-03T02:17:36;5.43;;;3.92;;
59054;SDS011;44845;51.444;7.460;2023-05-03T02:20:02;8.88;;;4.45;;
59054;SDS011;44845;51.444;7.460;2023-05-03T02:22:33;7.18;;;3.90;;
59054;SDS011;44845;51.444;7.460;2023-05-03T02:24:59;5.85;;;3.45;;
59054;SDS011;44845;51.444;7.460;2023-05-03T02:27:24;6.80;;;3.90;;
59054;SDS011;44845;51.444;7.460;2023-05-03T02:29:50;11.13;;;4.18;;
59054;SDS011;44845;51.444;7.460;2023-05-03T02:32:15;7.95;;;3.72;;
59054;SDS011;44845;51.444;7.460;2023-05-03T02:34:42;8.43;;;3.80;;
59054;SDS011;44845;51.444;7.460;2023-05-03T02:37:08;7.85;;;4.03;;
59054;SDS011;44845;51.444;7.460;2023-05-03T02:39:34;7.35;;;3.88;;
59054;SDS011;44845;51.444;7.460;2023-05-03T02:41:59;5.35;;;3.70;;
59054;SDS011;44845;51.444;7.460;2023-05-03T02:44:26;5.88;;;3.75;;
59054;SDS011;44845;51.444;7.460;2023-05-03T02:46:51;6.72;;;3.63;;
59054;SDS011;44845;51.444;7.460;2023-05-03T02:49:19;5.35;;;3.42;;
59054;SDS011;44845;51.444;7.460;2023-05-03T02:51:45;6.40;;;3.95;;
59054;SDS011;44845;51.444;7.460;2023-05-03T02:54:10;7.68;;;3.70;;
59054;SDS011;44845;51.444;7.460;2023-05-03T02:56:36;11.40;;;4.18;;
59054;SDS011;44845;51.444;7.460;2023-05-03T02:59:02;9.65;;;3.85;;
59054;SDS011;44845;51.444;7.460;2023-05-03T03:01:27;4.38;;;3.83;;
59054;SDS011;44845;51.444;7.460;2023-05-03T03:03:53;7.15;;;4.05;;
59054;SDS011;44845;51.444;7.460;2023-05-03T03:06:19;6.03;;;3.88;;
59054;SDS011;44845;51.444;7.460;2023-05-03T03:08:44;7.07;;;4.00;;
59054;SDS011;44845;51.444;7.460;2023-05-03T03:11:09;8.00;;;3.60;;
59054;SDS011;44845;51.444;7.460;2023-05-03T03:13:35;7.93;;;4.00;;
59054;SDS011;44845;51.444;7.460;2023-05-03T03:16:04;9.65;;;4.63;;
59054;SDS011;44845;51.444;7.460;2023-05-03T03:18:30;9.80;;;3.95;;
59054;SDS011;44845;51.444;7.460;2023-05-03T03:20:55;7.40;;;3.78;;
59054;SDS011;44845;51.444;7.460;2023-05-03T03:23:21;8.18;;;4.38;;
59054;SDS011;44845;51.444;7.460;2023-05-03T03:25:46;7.93;;;3.67;;
59054;SDS011;44845;51.444;7.460;2023-05-03T03:28:12;8.02;;;3.83;;
59054;SDS011;44845;51.444;7.460;2023-05-03T03:30:37;7.35;;;4.50;;
59054;SDS011;44845;51.444;7.460;2023-05-03T03:33:02;7.68;;;4.90;;
59054;SDS011;44845;51.444;7.460;2023-05-03T03:35:28;7.07;;;5.22;;
59054;SDS011;44845;51.444;7.460;2023-05-03T03:37:54;9.77;;;5.03;;
59054;SDS011;44845;51.444;7.460;2023-05-03T03:40:20;8.10;;;5.03;;
59054;SDS011;44845;51.444;7.460;2023-05-03T03:42:45;9.38;;;5.35;;
59054;SDS011;44845;51.444;7.460;2023-05-03T03:45:10;8.25;;;5.28;;
59054;SDS011;44845;51.444;7.460;2023-05-03T03:47:36;9.18;;;5.22;;
59054;SDS011;44845;51.444;7.460;2023-05-03T03:50:01;7.20;;;4.95;;
59054;SDS011;44845;51.444;7.460;2023-05-03T03:52:27;10.52;;;4.93;;
59054;SDS011;44845;51.444;7.460;2023-05-03T03:54:52;10.27;;;5.13;;
59054;SDS011;44845;51.444;7.460;2023-05-03T03:57:18;8.60;;;4.53;;
59054;SDS011;44845;51.444;7.460;2023-05-03T03:59:43;7.90;;;4.03;;
59054;SDS011;44845;51.444;7.460;2023-05-03T04:02:09;6.13;;;4.35;;
59054;SDS011;44845;51.444;7.460;2023-05-03T04:04:34;9.40;;;4.47;;
59054;SDS011;44845;51.444;7.460;2023-05-03T04:07:00;7.93;;;4.45;;
59054;SDS011;44845;51.444;7.460;2023-05-03T04:09:25;8.02;;;4.45;;
59054;SDS011;44845;51.444;7.460;2023-05-03T04:11:50;7.38;;;4.75;;
59054;SDS011;44845;51.444;7.460;2023-05-03T04:14:16;9.75;;;4.88;;
59054;SDS011;44845;51.444;7.460;2023-05-03T04:16:41;7.95;;;4.80;;
59054;SDS011;44845;51.444;7.460;2023-05-03T04:19:06;10.18;;;4.93;;
59054;SDS011;44845;51.444;7.460;2023-05-03T04:21:32;10.02;;;5.03;;
59054;SDS011;44845;51.444;7.460;2023-05-03T04:23:57;9.25;;;4.97;;
59054;SDS011;44845;51.444;7.460;2023-05-03T04:26:24;7.20;;;4.60;;
59054;SDS011;44845;51.444;7.460;2023-05-03T04:28:49;7.70;;;4.93;;
59054;SDS011;44845;51.444;7.460;2023-05-03T04:31:16;9.48;;;4.65;;
59054;SDS011;44845;51.444;7.460;2023-05-03T04:33:42;6.00;;;4.53;;
59054;SDS011;44845;51.444;7.460;2023-05-03T04:36:08;7.40;;;4.55;;
59054;SDS011;44845;51.444;7.460;2023-05-03T04:38:33;10.75;;;5.47;;
59054;SDS011;44845;51.444;7.460;2023-05-03T04:40:59;10.52;;;5.63;;
59054;SDS011;44845;51.444;7.460;2023-05-03T04:43:24;8.77;;;5.03;;
59054;SDS011;44845;51.444;7.460;2023-05-03T04:45:51;8.05;;;4.70;;
59054;SDS011;44845;51.444;7.460;2023-05-03T04:48:17;11.45;;;5.20;;
59054;SDS011;44845;51.444;7.460;2023-05-03T04:50:43;9.15;;;5.03;;
59054;SDS011;44845;51.444;7.460;2023-05-03T04:53:09;8.63;;;5.30;;
59054;SDS011;44845;51.444;7.460;2023-05-03T04:55:34;13.20;;;6.00;;
59054;SDS011;44845;51.444;7.460;2023-05-03T04:58:00;14.85;;;6.63;;
59054;SDS011;44845;51.444;7.460;2023-05-03T05:00:25;13.65;;;6.70;;
59054;SDS011;44845;51.444;7.460;2023-05-03T05:02:51;10.48;;;6.22;;
59054;SDS011;44845;51.444;7.460;2023-05-03T05:05:16;10.85;;;5.75;;
59054;SDS011;44845;51.444;7.460;2023-05-03T05:07:42;13.77;;;6.72;;
59054;SDS011;44845;51.444;7.460;2023-05-03T05:10:07;16.88;;;6.45;;
59054;SDS011;44845;51.444;7.460;2023-05-03T05:12:33;11.65;;;6.85;;
59054;SDS011;44845;51.444;7.460;2023-05-03T05:14:58;13.48;;;6.80;;
59054;SDS011;44845;51.444;7.460;2023-05-03T05:17:24;12.95;;;6.97;;
59054;SDS011;44845;51.444;7.460;2023-05-03T05:19:50;9.45;;;6.13;;
59054;SDS011;44845;51.444;7.460;2023-05-03T05:22:16;12.57;;;6.57;;
59054;SDS011;44845;51.444;7.460;2023-05-03T05:24:41;14.50;;;7.22;;
59054;SDS011;44845;51.444;7.460;2023-05-03T05:27:07;15.18;;;8.75;;
59054;SDS011;44845;51.444;7.460;2023-05-03T05:29:32;17.35;;;8.30;;
59054;SDS011;44845;51.444;7.460;2023-05-03T05:31:57;16.05;;;8.38;;
59054;SDS011;44845;51.444;7.460;2023-05-03T05:34:24;13.90;;;7.90;;
59054;SDS011;44845;51.444;7.460;2023-05-03T05:36:50;12.90;;;7.75;;
59054;SDS011;44845;51.444;7.460;2023-05-03T05:39:16;9.90;;;6.88;;
59054;SDS011;44845;51.444;7.460;2023-05-03T05:41:41;12.40;;;7.20;;
59054;SDS011;44845;51.444;7.460;2023-05-03T05:44:06;13.70;;;7.75;;
59054;SDS011;44845;51.444;7.460;2023-05-03T05:46:32;11.43;;;7.32;;
59054;SDS011;44845;51.444;7.460;2023-05-03T05:48:57;11.77;;;7.05;;
59054;SDS011;44845;51.444;7.460;2023-05-03T05:51:22;10.68;;;7.15;;
59054;SDS011;44845;51.444;7.460;2023-05-03T05:53:48;10.13;;;6.45;;
59054;SDS011;44845;51.444;7.460;2023-05-03T05:56:13;11.65;;;7.13;;
59054;SDS011;44845;51.444;7.460;2023-05-03T05:58:39;13.07;;;6.25;;
59054;SDS011;44845;51.444;7.460;2023-05-03T06:01:04;11.88;;;6.07;;
59054;SDS011;44845;51.444;7.460;2023-05-03T06:03:32;11.40;;;6.22;;
59054;SDS011;44845;51.444;7.460;2023-05-03T06:05:57;9.93;;;6.15;;
59054;SDS011;44845;51.444;7.460;2023-05-03T06:08:23;13.68;;;6.57;;
59054;SDS011;44845;51.444;7.460;2023-05-03T06:10:48;13.20;;;6.53;;
59054;SDS011;44845;51.444;7.460;2023-05-03T06:13:16;17.98;;;7.53;;
59054;SDS011;44845;51.444;7.460;2023-05-03T06:15:42;10.80;;;5.97;;
59054;SDS011;44845;51.444;7.460;2023-05-03T06:18:07;11.02;;;7.03;;
59054;SDS011;44845;51.444;7.460;2023-05-03T06:20:33;10.93;;;6.18;;
59054;SDS011;44845;51.444;7.460;2023-05-03T06:22:58;9.35;;;6.50;;
59054;SDS011;44845;51.444;7.460;2023-05-03T06:25:23;12.85;;;5.65;;
59054;SDS011;44845;51.444;7.460;2023-05-03T06:27:49;9.50;;;4.70;;
59054;SDS011;44845;51.444;7.460;2023-05-03T06:30:15;9.50;;;5.25;;
59054;SDS011;44845;51.444;7.460;2023-05-03T06:32:40;7.80;;;4.32;;
59054;SDS011;44845;51.444;7.460;2023-05-03T06:35:06;9.05;;;5.10;;
59054;SDS011;44845;51.444;7.460;2023-05-03T06:37:33;9.65;;;4.40;;
59054;SDS011;44845;51.444;7.460;2023-05-03T06:39:59;10.07;;;5.00;;
59054;SDS011;44845;51.444;7.460;2023-05-03T06:42:24;7.40;;;4.63;;
59054;SDS011;44845;51.444;7.460;2023-05-03T06:44:49;9.98;;;4.90;;
59054;SDS011;44845;51.444;7.460;2023-05-03T06:47:15;8.32;;;4.47;;
59054;SDS011;44845;51.444;7.460;2023-05-03T06:49:40;10.00;;;5.18;;
59054;SDS011;44845;51.444;7.460;2023-05-03T06:52:06;9.15;;;4.57;;
59054;SDS011;44845;51.444;7.460;2023-05-03T06:54:31;10.45;;;4.70;;
59054;SDS011;44845;51.444;7.460;2023-05-03T06:56:56;7.80;;;4.43;;
59054;SDS011;44845;51.444;7.460;2023-05-03T06:59:22;7.40;;;4.28;;
59054;SDS011;44845;51.444;7.460;2023-05-03T07:01:48;9.45;;;4.82;;
59054;SDS011;44845;51.444;7.460;2023-05-03T07:04:14;7.47;;;4.20;;
59054;SDS011;44845;51.444;7.460;2023-05-03T07:06:40;8.27;;;4.65;;
59054;SDS011;44845;51.444;7.460;2023-05-03T07:09:05;8.30;;;4.60;;
59054;SDS011;44845;51.444;7.460;2023-05-03T07:11:30;6.15;;;4.38;;
59054;SDS011;44845;51.444;7.460;2023-05-03T07:13:58;9.52;;;4.38;;
59054;SDS011;44845;51.444;7.460;2023-05-03T07:16:23;11.60;;;4.90;;
59054;SDS011;44845;51.444;7.460;2023-05-03T07:18:49;8.82;;;4.95;;
59054;SDS011;44845;51.444;7.460;2023-05-03T07:21:15;7.95;;;4.40;;
59054;SDS011;44845;51.444;7.460;2023-05-03T07:23:40;5.63;;;4.18;;
59054;SDS011;44845;51.444;7.460;2023-05-03T07:26:06;6.65;;;3.85;;
59054;SDS011;44845;51.444;7.460;2023-05-03T07:28:32;8.98;;;4.60;;
59054;SDS011;44845;51.444;7.460;2023-05-03T07:30:57;7.10;;;4.68;;
59054;SDS011;44845;51.444;7.460;2023-05-03T07:33:23;13.05;;;4.10;;
59054;SDS011;44845;51.444;7.460;2023-05-03T07:35:49;8.55;;;3.78;;
59054;SDS011;44845;51.444;7.460;2023-05-03T07:38:14;6.35;;;4.18;;
59054;SDS011;44845;51.444;7.460;2023-05-03T07:40:40;7.28;;;3.83;;
59054;SDS011;44845;51.444;7.460;2023-05-03T07:43:06;6.10;;;3.70;;
59054;SDS011;44845;51.444;7.460;2023-05-03T07:45:34;6.93;;;3.90;;
59054;SDS011;44845;51.444;7.460;2023-05-03T07:47:59;8.25;;;4.10;;
59054;SDS011;44845;51.444;7.460;2023-05-03T07:50:28;7.90;;;4.30;;
59054;SDS011;44845;51.444;7.460;2023-05-03T07:52:54;5.18;;;3.17;;
59054;SDS011;44845;51.444;7.460;2023-05-03T07:55:20;7.78;;;3.83;;
59054;SDS011;44845;51.444;7.460;2023-05-03T07:57:46;5.15;;;3.40;;
59054;SDS011;44845;51.444;7.460;2023-05-03T08:00:12;7.28;;;3.65;;
59054;SDS011;44845;51.444;7.460;2023-05-03T08:02:39;4.53;;;3.30;;
59054;SDS011;44845;51.444;7.460;2023-05-03T08:05:04;4.82;;;3.05;;
59054;SDS011;44845;51.444;7.460;2023-05-03T08:07:30;6.35;;;3.10;;
59054;SDS011;44845;51.444;7.460;2023-05-03T08:09:56;5.30;;;2.88;;
59054;SDS011;44845;51.444;7.460;2023-05-03T08:12:22;5.93;;;2.78;;
59054;SDS011;44845;51.444;7.460;2023-05-03T08:14:50;4.63;;;2.78;;
59054;SDS011;44845;51.444;7.460;2023-05-03T08:17:17;6.05;;;2.72;;
59054;SDS011;44845;51.444;7.460;2023-05-03T08:19:42;5.68;;;2.17;;
59054;SDS011;44845;51.444;7.460;2023-05-03T08:22:08;3.25;;;2.17;;
59054;SDS011;44845;51.444;7.460;2023-05-03T08:24:36;6.05;;;2.80;;
59054;SDS011;44845;51.444;7.460;2023-05-03T08:27:02;8.88;;;2.83;;
59054;SDS011;44845;51.444;7.460;2023-05-03T08:29:27;5.60;;;2.80;;
59054;SDS011;44845;51.444;7.460;2023-05-03T08:31:53;5.05;;;2.50;;
59054;SDS011;44845;51.444;7.460;2023-05-03T08:34:18;6.00;;;2.97;;
59054;SDS011;44845;51.444;7.460;2023-05-03T08:36:43;7.30;;;3.10;;
59054;SDS011;44845;51.444;7.460;2023-05-03T08:39:09;5.32;;;2.63;;
59054;SDS011;44845;51.444;7.460;2023-05-03T08:41:35;7.43;;;2.58;;
59054;SDS011;44845;51.444;7.460;2023-05-03T08:44:00;5.60;;;3.03;;
59054;SDS011;44845;51.444;7.460;2023-05-03T08:46:28;7.03;;;3.03;;
59054;SDS011;44845;51.444;7.460;2023-05-03T08:48:54;5.15;;;2.50;;
59054;SDS011;44845;51.444;7.460;2023-05-03T08:51:20;6.22;;;3.40;;
59054;SDS011;44845;51.444;7.460;2023-05-03T08:53:47;3.78;;;2.83;;
59054;SDS011;44845;51.444;7.460;2023-05-03T08:56:24;5.80;;;3.03;;
59054;SDS011;44845;51.444;7.460;2023-05-03T08:59:03;5.10;;;3.35;;
59054;SDS011;44845;51.444;7.460;2023-05-03T09:01:33;4.50;;;2.72;;
59054;SDS011;44845;51.444;7.460;2023-05-03T09:04:00;4.35;;;3.05;;
59054;SDS011;44845;51.444;7.460;2023-05-03T09:06:25;6.97;;;2.92;;
59054;SDS011;44845;51.444;7.460;2023-05-03T09:08:51;6.45;;;2.60;;
59054;SDS011;44845;51.444;7.460;2023-05-03T09:11:24;4.25;;;2.95;;
59054;SDS011;44845;51.444;7.460;2023-05-03T09:14:06;5.18;;;2.65;;
59054;SDS011;44845;51.444;7.460;2023-05-03T09:16:36;6.75;;;2.92;;
59054;SDS011;44845;51.444;7.460;2023-05-03T09:19:03;6.05;;;2.55;;
59054;SDS011;44845;51.444;7.460;2023-05-03T09:21:40;5.47;;;2.60;;
59054;SDS011;44845;51.444;7.460;2023-05-03T09:24:13;4.32;;;2.50;;
59054;SDS011;44845;51.444;7.460;2023-05-03T09:26:40;4.63;;;2.85;;
59054;SDS011;44845;51.444;7.460;2023-05-03T09:29:06;5.60;;;2.45;;
59054;SDS011;44845;51.444;7.460;2023-05-03T09:31:32;5.45;;;2.97;;
59054;SDS011;44845;51.444;7.460;2023-05-03T09:33:59;4.45;;;2.47;;
59054;SDS011;44845;51.444;7.460;2023-05-03T09:36:25;4.85;;;2.60;;
59054;SDS011;44845;51.444;7.460;2023-05-03T09:38:53;5.93;;;2.63;;
59054;SDS011;44845;51.444;7.460;2023-05-03T09:41:29;3.38;;;2.40;;
59054;SDS011;44845;51.444;7.460;2023-05-03T09:43:56;3.90;;;2.30;;
59054;SDS011;44845;51.444;7.460;2023-05-03T09:46:26;4.68;;;2.20;;
59054;SDS011;44845;51.444;7.460;2023-05-03T09:48:54;4.90;;;2.50;;
59054;SDS011;44845;51.444;7.460;2023-05-03T09:51:21;6.13;;;2.58;;
59054;SDS011;44845;51.444;7.460;2023-05-03T09:53:47;7.95;;;2.47;;
59054;SDS011;44845;51.444;7.460;2023-05-03T09:56:13;5.40;;;2.47;;
59054;SDS011;44845;51.444;7.460;2023-05-03T09:58:39;4.05;;;2.20;;
59054;SDS011;44845;51.444;7.460;2023-05-03T10:01:05;5.03;;;2.40;;
59054;SDS011;44845;51.444;7.460;2023-05-03T10:06:21;5.72;;;2.60;;
59054;SDS011;44845;51.444;7.460;2023-05-03T10:11:51;7.47;;;2.45;;
59054;SDS011;44845;51.444;7.460;2023-05-03T10:14:18;4.28;;;2.25;;
59054;SDS011;44845;51.444;7.460;2023-05-03T10:16:46;5.80;;;2.88;;
59054;SDS011;44845;51.444;7.460;2023-05-03T10:19:20;5.20;;;2.47;;
59054;SDS011;44845;51.444;7.460;2023-05-03T10:21:53;9.30;;;3.03;;
59054;SDS011;44845;51.444;7.460;2023-05-03T10:24:23;5.43;;;2.75;;
59054;SDS011;44845;51.444;7.460;2023-05-03T10:26:49;3.90;;;2.72;;
59054;SDS011;44845;51.444;7.460;2023-05-03T10:34:56;3.10;;;2.35;;
59054;SDS011;44845;51.444;7.460;2023-05-03T10:37:24;4.15;;;2.55;;
59054;SDS011;44845;51.444;7.460;2023-05-03T10:39:54;7.18;;;2.53;;
59054;SDS011;44845;51.444;7.460;2023-05-03T10:42:21;4.90;;;2.33;;
59054;SDS011;44845;51.444;7.460;2023-05-03T10:47:17;3.28;;;2.22;;
59054;SDS011;44845;51.444;7.460;2023-05-03T10:49:44;6.35;;;2.90;;
59054;SDS011;44845;51.444;7.460;2023-05-03T10:55:13;4.28;;;2.25;;
59054;SDS011;44845;51.444;7.460;2023-05-03T10:57:41;7.78;;;2.60;;
59054;SDS011;44845;51.444;7.460;2023-05-03T11:05:35;4.57;;;2.97;;
59054;SDS011;44845;51.444;7.460;2023-05-03T11:08:08;6.40;;;2.72;;
59054;SDS011;44845;51.444;7.460;2023-05-03T11:10:33;5.88;;;2.70;;
59054;SDS011;44845;51.444;7.460;2023-05-03T11:12:59;4.47;;;2.75;;
59054;SDS011;44845;51.444;7.460;2023-05-03T11:15:24;4.65;;;2.67;;
59054;SDS011;44845;51.444;7.460;2023-05-03T11:17:49;5.05;;;2.90;;
59054;SDS011;44845;51.444;7.460;2023-05-03T11:20:15;5.05;;;2.70;;
59054;SDS011;44845;51.444;7.460;2023-05-03T11:22:40;5.10;;;2.72;;
59054;SDS011;44845;51.444;7.460;2023-05-03T11:25:06;5.82;;;2.78;;
59054;SDS011;44845;51.444;7.460;2023-05-03T11:27:31;4.13;;;2.70;;
59054;SDS011;44845;51.444;7.460;2023-05-03T11:29:57;5.50;;;2.90;;
59054;SDS011;44845;51.444;7.460;2023-05-03T11:32:26;7.40;;;3.30;;
59054;SDS011;44845;51.444;7.460;2023-05-03T11:34:52;5.68;;;2.83;;
59054;SDS011;44845;51.444;7.460;2023-05-03T11:37:17;4.05;;;2.60;;
59054;SDS011;44845;51.444;7.460;2023-05-03T11:39:43;6.00;;;2.83;;
59054;SDS011;44845;51.444;7.460;2023-05-03T11:42:08;5.82;;;3.03;;
59054;SDS011;44845;51.444;7.460;2023-05-03T11:44:33;3.00;;;2.65;;
59054;SDS011;44845;51.444;7.460;2023-05-03T11:47:00;6.63;;;2.70;;
59054;SDS011;44845;51.444;7.460;2023-05-03T11:49:26;6.18;;;2.97;;
59054;SDS011;44845;51.444;7.460;2023-05-03T11:51:51;4.88;;;2.95;;
59054;SDS011;44845;51.444;7.460;2023-05-03T11:54:17;6.85;;;2.97;;
59054;SDS011;44845;51.444;7.460;2023-05-03T11:56:43;4.55;;;2.90;;
59054;SDS011;44845;51.444;7.460;2023-05-03T11:59:08;4.53;;;2.70;;
59054;SDS011;44845;51.444;7.460;2023-05-03T12:01:34;7.65;;;3.08;;
59054;SDS011;44845;51.444;7.460;2023-05-03T12:04:00;4.47;;;3.10;;
59054;SDS011;44845;51.444;7.460;2023-05-03T12:06:28;4.72;;;2.83;;
59054;SDS011;44845;51.444;7.460;2023-05-03T12:08:55;6.53;;;3.00;;
59054;SDS011;44845;51.444;7.460;2023-05-03T12:11:21;4.63;;;2.75;;
59054;SDS011;44845;51.444;7.460;2023-05-03T12:13:54;5.05;;;2.70;;
59054;SDS011;44845;51.444;7.460;2023-05-03T12:16:23;3.25;;;2.88;;
59054;SDS011;44845;51.444;7.460;2023-05-03T12:18:54;3.75;;;2.80;;
59054;SDS011;44845;51.444;7.460;2023-05-03T12:21:23;3.67;;;2.97;;
59054;SDS011;44845;51.444;7.460;2023-05-03T12:23:49;4.93;;;3.08;;
59054;SDS011;44845;51.444;7.460;2023-05-03T12:26:16;4.57;;;2.78;;
59054;SDS011;44845;51.444;7.460;2023-05-03T12:28:44;3.20;;;2.60;;
59054;SDS011;44845;51.444;7.460;2023-05-03T12:31:10;7.22;;;3.10;;
59054;SDS011;44845;51.444;7.460;2023-05-03T12:33:36;6.50;;;2.83;;
59054;SDS011;44845;51.444;7.460;2023-05-03T12:36:01;3.97;;;2.90;;
59054;SDS011;44845;51.444;7.460;2023-05-03T12:38:27;6.03;;;3.17;;
59054;SDS011;44845;51.444;7.460;2023-05-03T12:40:52;6.55;;;2.95;;
59054;SDS011;44845;51.444;7.460;2023-05-03T12:43:18;11.27;;;3.10;;
59054;SDS011;44845;51.444;7.460;2023-05-03T12:45:43;5.50;;;2.72;;
59054;SDS011;44845;51.444;7.460;2023-05-03T12:48:09;3.22;;;2.55;;
59054;SDS011;44845;51.444;7.460;2023-05-03T12:50:34;4.22;;;2.88;;
59054;SDS011;44845;51.444;7.460;2023-05-03T12:52:59;6.38;;;2.60;;
59054;SDS011;44845;51.444;7.460;2023-05-03T12:55:25;5.38;;;2.75;;
59054;SDS011;44845;51.444;7.460;2023-05-03T12:57:51;5.60;;;2.83;;
59054;SDS011;44845;51.444;7.460;2023-05-03T13:00:16;4.30;;;2.60;;
59054;SDS011;44845;51.444;7.460;2023-05-03T13:02:44;7.28;;;3.05;;
59054;SDS011;44845;51.444;7.460;2023-05-03T13:05:09;5.57;;;2.92;;
59054;SDS011;44845;51.444;7.460;2023-05-03T13:07:37;5.20;;;2.70;;
59054;SDS011;44845;51.444;7.460;2023-05-03T13:10:04;3.33;;;2.88;;
59054;SDS011;44845;51.444;7.460;2023-05-03T13:12:29;4.82;;;2.90;;
59054;SDS011;44845;51.444;7.460;2023-05-03T13:14:57;7.95;;;3.20;;
59054;SDS011;44845;51.444;7.460;2023-05-03T13:17:22;3.15;;;2.58;;
59054;SDS011;44845;51.444;7.460;2023-05-03T13:19:48;4.18;;;3.40;;
59054;SDS011;44845;51.444;7.460;2023-05-03T13:22:15;5.75;;;3.00;;
59054;SDS011;44845;51.444;7.460;2023-05-03T13:24:42;5.10;;;3.10;;
59054;SDS011;44845;51.444;7.460;2023-05-03T13:27:08;6.85;;;3.45;;
59054;SDS011;44845;51.444;7.460;2023-05-03T13:29:35;4.97;;;2.78;;
59054;SDS011;44845;51.444;7.460;2023-05-03T13:32:00;5.47;;;3.90;;
59054;SDS011;44845;51.444;7.460;2023-05-03T13:34:26;7.45;;;3.35;;
59054;SDS011;44845;51.444;7.460;2023-05-03T13:36:53;5.88;;;3.20;;
59054;SDS011;44845;51.444;7.460;2023-05-03T13:39:19;6.63;;;3.38;;
59054;SDS011;44845;51.444;7.460;2023-05-03T13:41:44;6.32;;;3.70;;
59054;SDS011;44845;51.444;7.460;2023-05-03T13:44:10;4.32;;;2.90;;
59054;SDS011;44845;51.444;7.460;2023-05-03T13:46:35;8.30;;;3.38;;
59054;SDS011;44845;51.444;7.460;2023-05-03T13:49:01;6.25;;;3.35;;
59054;SDS011;44845;51.444;7.460;2023-05-03T13:51:29;6.75;;;3.17;;
59054;SDS011;44845;51.444;7.460;2023-05-03T13:53:55;5.38;;;3.10;;
59054;SDS011;44845;51.444;7.460;2023-05-03T13:56:22;4.65;;;3.00;;
59054;SDS011;44845;51.444;7.460;2023-05-03T13:58:48;6.60;;;3.60;;
59054;SDS011;44845;51.444;7.460;2023-05-03T14:01:13;7.00;;;4.18;;
59054;SDS011;44845;51.444;7.460;2023-05-03T14:03:39;6.40;;;3.55;;
59054;SDS011;44845;51.444;7.460;2023-05-03T14:06:04;6.47;;;4.22;;
59054;SDS011;44845;51.444;7.460;2023-05-03T14:08:32;6.68;;;3.45;;
59054;SDS011;44845;51.444;7.460;2023-05-03T14:10:57;7.13;;;3.90;;
59054;SDS011;44845;51.444;7.460;2023-05-03T14:13:22;5.20;;;3.45;;
59054;SDS011;44845;51.444;7.460;2023-05-03T14:15:48;12.73;;;3.40;;
59054;SDS011;44845;51.444;7.460;2023-05-03T14:18:13;14.88;;;4.35;;
59054;SDS011;44845;51.444;7.460;2023-05-03T14:20:39;6.82;;;3.45;;
59054;SDS011;44845;51.444;7.460;2023-05-03T14:23:04;5.93;;;3.10;;
59054;SDS011;44845;51.444;7.460;2023-05-03T14:25:30;6.20;;;3.45;;
59054;SDS011;44845;51.444;7.460;2023-05-03T14:27:55;5.88;;;3.42;;
59054;SDS011;44845;51.444;7.460;2023-05-03T14:30:21;5.32;;;3.20;;
59054;SDS011;44845;51.444;7.460;2023-05-03T14:32:46;7.72;;;3.83;;
59054;SDS011;44845;51.444;7.460;2023-05-03T14:35:15;6.18;;;3.75;;
59054;SDS011;44845;51.444;7.460;2023-05-03T14:37:44;5.15;;;3.33;;
59054;SDS011;44845;51.444;7.460;2023-05-03T14:40:10;6.93;;;3.63;;
59054;SDS011;44845;51.444;7.460;2023-05-03T14:42:35;6.75;;;3.85;;
59054;SDS011;44845;51.444;7.460;2023-05-03T14:45:01;5.32;;;3.58;;
59054;SDS011;44845;51.444;7.460;2023-05-03T14:47:26;5.90;;;3.40;;
59054;SDS011;44845;51.444;7.460;2023-05-03T14:49:51;5.65;;;3.38;;
59054;SDS011;44845;51.444;7.460;2023-05-03T14:52:17;5.10;;;3.90;;
59054;SDS011;44845;51.444;7.460;2023-05-03T14:54:42;6.22;;;3.60;;
59054;SDS011;44845;51.444;7.460;2023-05-03T14:57:08;5.38;;;3.72;;
59054;SDS011;44845;51.444;7.460;2023-05-03T14:59:33;5.97;;;3.75;;
59054;SDS011;44845;51.444;7.460;2023-05-03T15:01:59;7.75;;;3.75;;
59054;SDS011;44845;51.444;7.460;2023-05-03T15:04:25;6.13;;;4.10;;
59054;SDS011;44845;51.444;7.460;2023-05-03T15:06:50;6.30;;;3.47;;
59054;SDS011;44845;51.444;7.460;2023-05-03T15:09:16;8.13;;;4.05;;
59054;SDS011;44845;51.444;7.460;2023-05-03T15:11:43;6.65;;;3.63;;